createdAt,value
2022-10-10T00:00:05.815Z,12.00
2022-10-10T00:02:51.414Z,11.90
2022-10-10T00:05:39.373Z,12.00
2022-10-10T00:08:24.678Z,12.00
2022-10-10T00:11:11.842Z,12.00
2022-10-10T00:13:57.491Z,12.00
2022-10-10T00:16:43.066Z,11.90
2022-10-10T00:19:28.665Z,12.00
2022-10-10T00:22:13.953Z,12.30
2022-10-10T00:24:59.764Z,12.10
2022-10-10T00:27:45.092Z,12.10
2022-10-10T00:30:31.194Z,12.10
2022-10-10T00:33:16.873Z,12.00
2022-10-10T00:36:02.388Z,11.90
2022-10-10T00:38:47.919Z,11.90
2022-10-10T00:41:33.793Z,11.90
2022-10-10T00:44:19.107Z,12.00
2022-10-10T00:47:04.575Z,12.00
2022-10-10T00:49:50.032Z,12.00
2022-10-10T00:52:35.576Z,12.00
2022-10-10T00:55:21.669Z,12.10
2022-10-10T00:58:09.196Z,12.00
2022-10-10T01:00:55.253Z,12.00
2022-10-10T01:03:40.640Z,12.00
2022-10-10T01:06:26.673Z,12.00
2022-10-10T01:09:12.197Z,12.00
2022-10-10T01:12:04.792Z,12.10
2022-10-10T01:15:12.860Z,12.00
2022-10-10T01:18:04.124Z,12.10
2022-10-10T01:20:55.562Z,12.10
2022-10-10T01:24:02.392Z,12.10
2022-10-10T01:26:47.455Z,12.10
2022-10-10T01:29:51.512Z,12.10
2022-10-10T01:32:54.171Z,12.00
2022-10-10T01:35:58.138Z,12.00
2022-10-10T01:38:52.076Z,12.00
2022-10-10T01:41:56.353Z,12.00
2022-10-10T01:44:46.722Z,12.00
2022-10-10T01:47:32.521Z,12.00
2022-10-10T01:50:21.723Z,12.00
2022-10-10T01:53:20.221Z,12.00
2022-10-10T01:56:22.981Z,12.00
2022-10-10T01:59:45.665Z,12.00
2022-10-10T02:02:34.266Z,12.00
2022-10-10T02:05:36.592Z,12.00
2022-10-10T02:08:34.348Z,12.00
2022-10-10T02:11:19.613Z,12.00
2022-10-10T02:14:28.522Z,12.00
2022-10-10T02:17:15.908Z,12.00
2022-10-10T02:20:01.218Z,11.90
2022-10-10T02:22:50.022Z,11.90
2022-10-10T02:25:39.532Z,11.90
2022-10-10T02:28:34.539Z,11.90
2022-10-10T02:31:28.450Z,11.90
2022-10-10T02:34:23.274Z,11.90
2022-10-10T02:37:12.563Z,11.90
2022-10-10T02:40:01.526Z,11.90
2022-10-10T02:42:49.502Z,11.90
2022-10-10T02:45:35.937Z,11.80
2022-10-10T02:48:21.516Z,11.90
2022-10-10T02:51:07.674Z,11.80
2022-10-10T02:53:52.979Z,11.80
2022-10-10T02:56:38.482Z,11.80
2022-10-10T02:59:24.155Z,11.90
2022-10-10T03:02:09.522Z,11.90
2022-10-10T03:04:55.204Z,11.90
2022-10-10T03:07:41.018Z,11.90
2022-10-10T03:10:26.482Z,11.90
2022-10-10T03:13:12.177Z,11.90
2022-10-10T03:15:57.948Z,12.00
2022-10-10T03:18:43.425Z,12.00
2022-10-10T03:21:29.459Z,11.90
2022-10-10T03:24:15.258Z,11.90
2022-10-10T03:27:00.944Z,11.80
2022-10-10T03:29:46.443Z,11.90
2022-10-10T03:32:31.989Z,11.90
2022-10-10T03:35:17.667Z,11.90
2022-10-10T03:38:03.966Z,12.00
2022-10-10T03:40:49.446Z,12.00
2022-10-10T03:43:34.938Z,11.90
2022-10-10T03:46:20.980Z,11.90
2022-10-10T03:49:06.476Z,11.90
2022-10-10T03:51:51.832Z,11.80
2022-10-10T03:54:37.486Z,11.80
2022-10-10T03:57:22.729Z,11.70
2022-10-10T04:00:09.461Z,11.80
2022-10-10T04:02:54.690Z,11.80
2022-10-10T04:05:40.659Z,11.80
2022-10-10T04:08:26.509Z,11.80
2022-10-10T04:11:11.872Z,11.80
2022-10-10T04:13:57.432Z,11.80
2022-10-10T04:16:42.969Z,11.90
2022-10-10T04:19:28.436Z,11.90
2022-10-10T04:22:14.522Z,11.90
2022-10-10T04:25:00.056Z,11.80
2022-10-10T04:27:45.712Z,11.70
2022-10-10T04:30:33.957Z,11.70
2022-10-10T04:33:19.619Z,11.60
2022-10-10T04:36:05.324Z,11.40
2022-10-10T04:38:50.828Z,11.40
2022-10-10T04:41:36.569Z,11.30
2022-10-10T04:44:21.892Z,11.30
2022-10-10T04:47:07.421Z,11.40
2022-10-10T04:49:52.809Z,11.30
2022-10-10T04:52:38.768Z,11.30
2022-10-10T04:55:24.321Z,11.20
2022-10-10T04:58:09.809Z,11.20
2022-10-10T05:00:55.864Z,11.20
2022-10-10T05:03:41.158Z,11.10
2022-10-10T05:06:27.048Z,11.10
2022-10-10T05:09:13.283Z,11.10
2022-10-10T05:11:58.815Z,11.10
2022-10-10T05:14:47.947Z,11.10
2022-10-10T05:17:33.990Z,11.10
2022-10-10T05:20:19.658Z,11.20
2022-10-10T05:23:05.002Z,11.20
2022-10-10T05:25:51.439Z,11.10
2022-10-10T05:28:37.300Z,11.10
2022-10-10T05:31:23.116Z,11.10
2022-10-10T05:34:13.672Z,11.20
2022-10-10T05:36:59.090Z,11.20
2022-10-10T05:39:44.658Z,11.30
2022-10-10T05:42:30.082Z,11.30
2022-10-10T05:45:15.674Z,11.40
2022-10-10T05:48:00.878Z,11.30
2022-10-10T05:50:49.721Z,11.30
2022-10-10T05:53:35.047Z,11.40
2022-10-10T05:56:20.712Z,11.40
2022-10-10T05:59:06.005Z,11.40
2022-10-10T06:01:51.413Z,11.40
2022-10-10T06:04:36.671Z,11.40
2022-10-10T06:07:22.139Z,11.40
2022-10-10T06:10:08.609Z,11.40
2022-10-10T06:12:54.031Z,11.40
2022-10-10T06:15:40.084Z,11.50
2022-10-10T06:18:25.561Z,11.50
2022-10-10T06:21:11.682Z,11.60
2022-10-10T06:23:57.186Z,11.70
2022-10-10T06:26:42.525Z,11.70
2022-10-10T06:29:28.345Z,11.70
2022-10-10T06:32:13.773Z,11.80
2022-10-10T06:34:59.217Z,11.90
2022-10-10T06:37:44.709Z,11.90
2022-10-10T06:40:30.176Z,12.00
2022-10-10T06:43:17.103Z,12.00
2022-10-10T06:46:03.198Z,12.20
2022-10-10T06:48:48.719Z,12.20
2022-10-10T06:51:35.615Z,12.20
2022-10-10T06:54:20.838Z,12.30
2022-10-10T06:57:06.456Z,12.30
2022-10-10T06:59:51.983Z,12.40
2022-10-10T07:02:40.744Z,12.50
2022-10-10T07:05:26.239Z,12.50
2022-10-10T07:08:11.696Z,12.60
2022-10-10T07:10:57.176Z,12.70
2022-10-10T07:13:42.615Z,12.90
2022-10-10T07:16:28.071Z,13.00
2022-10-10T07:19:14.752Z,13.10
2022-10-10T07:22:00.160Z,13.10
2022-10-10T07:24:45.744Z,13.20
2022-10-10T07:27:31.051Z,13.30
2022-10-10T07:30:16.722Z,13.40
2022-10-10T07:33:02.192Z,13.40
2022-10-10T07:35:54.507Z,13.50
2022-10-10T07:38:40.290Z,13.50
2022-10-10T07:41:25.699Z,13.70
2022-10-10T07:44:11.344Z,13.60
2022-10-10T07:46:56.840Z,13.50
2022-10-10T07:49:42.332Z,13.40
2022-10-10T07:52:27.967Z,13.50
2022-10-10T07:55:13.511Z,13.60
2022-10-10T07:58:00.149Z,13.60
2022-10-10T08:00:45.622Z,13.70
2022-10-10T08:03:31.578Z,13.70
2022-10-10T08:06:18.025Z,13.70
2022-10-10T08:09:03.759Z,13.90
2022-10-10T08:11:49.149Z,13.90
2022-10-10T08:14:34.731Z,14.00
2022-10-10T08:17:20.165Z,14.00
2022-10-10T08:20:06.082Z,14.10
2022-10-10T08:22:51.487Z,14.10
2022-10-10T08:25:37.481Z,14.20
2022-10-10T08:28:23.021Z,14.30
2022-10-10T08:31:10.782Z,14.30
2022-10-10T08:33:56.691Z,14.30
2022-10-10T08:36:42.307Z,14.40
2022-10-10T08:39:27.657Z,14.40
2022-10-10T08:42:36.815Z,14.40
2022-10-10T08:45:26.246Z,14.40
2022-10-10T08:48:16.499Z,14.40
2022-10-10T08:51:10.823Z,14.50
2022-10-10T08:54:00.646Z,14.50
2022-10-10T08:56:46.925Z,14.60
2022-10-10T08:59:36.548Z,14.80
2022-10-10T09:02:59.053Z,15.00
2022-10-10T09:05:56.126Z,15.20
2022-10-10T09:09:16.434Z,15.30
2022-10-10T09:12:14.218Z,15.50
2022-10-10T09:15:15.094Z,15.40
2022-10-10T09:18:32.910Z,15.60
2022-10-10T09:21:26.671Z,15.80
2022-10-10T09:24:20.971Z,15.80
2022-10-10T09:27:12.920Z,15.90
2022-10-10T09:30:06.367Z,16.00
2022-10-10T09:33:07.180Z,16.20
2022-10-10T09:35:54.948Z,16.40
2022-10-10T09:38:51.441Z,16.50
2022-10-10T09:41:45.454Z,16.60
2022-10-10T09:44:32.390Z,16.90
2022-10-10T09:47:17.885Z,17.00
2022-10-10T09:52:51.675Z,17.10
2022-10-10T09:55:39.203Z,17.30
2022-10-10T09:58:36.060Z,17.50
2022-10-10T10:01:21.409Z,17.70
2022-10-10T10:04:27.294Z,18.00
2022-10-10T10:07:32.606Z,18.20
2022-10-10T10:10:21.434Z,18.70
2022-10-10T10:13:21.619Z,18.90
2022-10-10T10:16:11.660Z,18.90
2022-10-10T10:18:57.303Z,18.80
2022-10-10T10:21:52.886Z,18.80
2022-10-10T10:24:39.129Z,18.90
2022-10-10T10:27:26.670Z,19.10
2022-10-10T10:30:27.881Z,19.40
2022-10-10T10:33:19.065Z,19.90
2022-10-10T10:36:46.248Z,19.90
2022-10-10T10:39:47.949Z,20.20
2022-10-10T10:43:00.592Z,20.60
2022-10-10T10:46:28.041Z,20.90
2022-10-10T10:49:25.488Z,21.20
2022-10-10T10:52:33.389Z,21.10
2022-10-10T10:55:18.833Z,21.00
2022-10-10T11:01:56.782Z,21.60
2022-10-10T11:05:23.134Z,22.00
2022-10-10T11:08:29.007Z,22.30
2022-10-10T11:11:25.235Z,22.90
2022-10-10T11:14:36.703Z,23.30
2022-10-10T11:17:41.451Z,23.50
2022-10-10T11:20:32.672Z,23.70
2022-10-10T11:23:28.344Z,23.80
2022-10-10T11:26:19.300Z,24.00
2022-10-10T11:29:11.411Z,24.20
2022-10-10T11:32:08.106Z,24.20
2022-10-10T11:35:21.181Z,24.00
2022-10-10T11:38:19.165Z,24.20
2022-10-10T11:41:14.476Z,24.30
2022-10-10T11:44:22.241Z,24.10
2022-10-10T11:47:23.920Z,24.00
2022-10-10T11:50:29.046Z,24.20
2022-10-10T11:53:14.235Z,24.20
2022-10-10T11:56:17.699Z,24.10
2022-10-10T11:59:30.690Z,24.10
2022-10-10T12:02:27.979Z,24.00
2022-10-10T12:05:42.273Z,24.20
2022-10-10T12:08:34.542Z,24.10
2022-10-10T12:11:26.232Z,24.10
2022-10-10T12:14:16.576Z,24.20
2022-10-10T12:17:02.112Z,24.20
2022-10-10T12:19:54.357Z,24.20
2022-10-10T12:22:39.977Z,24.10
2022-10-10T12:25:42.296Z,24.00
2022-10-10T12:28:35.117Z,23.80
2022-10-10T12:31:28.676Z,23.60
2022-10-10T12:34:17.020Z,23.50
2022-10-10T12:37:30.848Z,23.20
2022-10-10T12:40:21.381Z,23.30
2022-10-10T12:43:46.485Z,23.30
2022-10-10T12:46:33.393Z,23.20
2022-10-10T12:49:25.708Z,23.10
2022-10-10T12:52:18.367Z,23.10
2022-10-10T12:55:08.657Z,23.10
2022-10-10T12:58:07.317Z,23.10
2022-10-10T13:00:53.428Z,23.00
2022-10-10T13:03:45.336Z,23.00
2022-10-10T13:06:43.518Z,23.00
2022-10-10T13:09:36.969Z,23.00
2022-10-10T13:12:22.777Z,23.00
2022-10-10T13:15:19.932Z,23.00
2022-10-10T13:18:05.446Z,22.90
2022-10-10T13:20:50.817Z,23.00
2022-10-10T13:23:40.379Z,23.10
2022-10-10T13:26:33.302Z,23.10
2022-10-10T13:29:36.095Z,23.20
2022-10-10T13:32:26.359Z,23.30
2022-10-10T13:35:21.610Z,23.30
2022-10-10T13:38:07.205Z,23.20
2022-10-10T13:40:53.304Z,23.00
2022-10-10T13:43:40.696Z,22.80
2022-10-10T13:46:33.925Z,22.80
2022-10-10T13:49:29.830Z,23.00
2022-10-10T13:52:23.927Z,23.10
2022-10-10T13:55:37.907Z,23.30
2022-10-10T13:58:23.460Z,23.40
2022-10-10T14:01:31.251Z,23.70
2022-10-10T14:04:20.671Z,23.80
2022-10-10T14:07:20.762Z,23.90
2022-10-10T14:10:09.078Z,23.70
2022-10-10T14:13:00.079Z,23.60
2022-10-10T14:15:46.894Z,23.60
2022-10-10T14:18:32.569Z,23.60
2022-10-10T14:21:20.943Z,23.70
2022-10-10T14:24:09.133Z,23.90
2022-10-10T14:26:54.789Z,23.90
2022-10-10T14:29:40.122Z,23.90
2022-10-10T14:32:25.771Z,23.90
2022-10-10T14:35:13.442Z,23.80
2022-10-10T14:37:59.135Z,23.80
2022-10-10T14:40:48.027Z,23.80
2022-10-10T14:43:33.525Z,23.80
2022-10-10T14:46:21.495Z,23.80
2022-10-10T14:49:11.010Z,23.90
2022-10-10T14:52:02.033Z,23.90
2022-10-10T14:54:47.155Z,24.00
2022-10-10T14:57:32.779Z,24.00
2022-10-10T15:00:23.263Z,24.10
2022-10-10T15:03:11.342Z,24.00
2022-10-10T15:05:56.745Z,24.00
2022-10-10T15:08:42.333Z,24.00
2022-10-10T15:11:31.923Z,23.80
2022-10-10T15:14:17.603Z,23.70
2022-10-10T15:17:03.026Z,23.60
2022-10-10T15:19:49.151Z,23.50
2022-10-10T15:22:35.318Z,23.50
2022-10-10T15:25:21.130Z,23.50
2022-10-10T15:28:06.888Z,23.50
2022-10-10T15:30:54.664Z,23.60
2022-10-10T15:33:40.538Z,23.60
2022-10-10T15:36:26.386Z,23.70
2022-10-10T15:39:12.681Z,23.80
2022-10-10T15:41:59.598Z,23.80
2022-10-10T15:44:49.943Z,23.80
2022-10-10T15:47:44.135Z,23.70
2022-10-10T15:50:32.446Z,23.50
2022-10-10T15:53:18.933Z,23.30
2022-10-10T15:56:16.061Z,23.10
2022-10-10T15:59:02.569Z,22.90
2022-10-10T16:01:47.918Z,22.70
2022-10-10T16:04:33.843Z,22.60
2022-10-10T16:07:28.169Z,22.40
2022-10-10T16:10:15.627Z,22.30
2022-10-10T16:13:01.251Z,22.30
2022-10-10T16:16:00.212Z,22.20
2022-10-10T16:18:46.464Z,22.10
2022-10-10T16:21:33.629Z,22.00
2022-10-10T16:24:19.339Z,21.90
2022-10-10T16:27:04.601Z,21.80
2022-10-10T16:29:50.289Z,21.70
2022-10-10T16:32:41.813Z,21.60
2022-10-10T16:35:27.973Z,21.40
2022-10-10T16:38:14.672Z,21.30
2022-10-10T16:41:19.660Z,21.20
2022-10-10T16:44:14.140Z,21.10
2022-10-10T16:46:59.472Z,21.00
2022-10-10T16:49:45.041Z,20.90
2022-10-10T16:52:30.483Z,20.90
2022-10-10T16:55:16.257Z,20.60
2022-10-10T16:58:01.980Z,20.40
2022-10-10T17:00:47.271Z,20.10
2022-10-10T17:03:32.764Z,19.90
2022-10-10T17:06:21.329Z,19.90
2022-10-10T17:09:08.396Z,19.70
2022-10-10T17:11:53.861Z,19.50
2022-10-10T17:14:39.315Z,19.50
2022-10-10T17:17:24.891Z,19.30
2022-10-10T17:20:11.081Z,19.20
2022-10-10T17:22:56.739Z,19.10
2022-10-10T17:25:44.447Z,19.10
2022-10-10T17:28:29.799Z,19.00
2022-10-10T17:31:16.103Z,18.90
2022-10-10T17:34:01.739Z,18.70
2022-10-10T17:36:47.354Z,18.60
2022-10-10T17:39:32.852Z,18.50
2022-10-10T17:42:18.586Z,18.40
2022-10-10T17:45:04.338Z,18.30
2022-10-10T17:47:49.909Z,18.20
2022-10-10T17:50:36.744Z,18.10
2022-10-10T17:53:22.390Z,18.00
2022-10-10T17:56:13.616Z,18.00
2022-10-10T17:59:01.809Z,18.10
2022-10-10T18:01:47.309Z,18.10
2022-10-10T18:04:32.985Z,18.10
2022-10-10T18:07:18.937Z,18.10
2022-10-10T18:10:05.050Z,18.00
2022-10-10T18:12:50.285Z,17.90
2022-10-10T18:15:36.095Z,17.90
2022-10-10T18:18:21.510Z,17.90
2022-10-10T18:21:09.418Z,17.80
2022-10-10T18:23:54.875Z,17.80
2022-10-10T18:26:40.415Z,17.80
2022-10-10T18:29:25.812Z,17.90
2022-10-10T18:32:11.487Z,17.80
2022-10-10T18:34:56.963Z,17.70
2022-10-10T18:37:42.414Z,17.70
2022-10-10T18:40:28.073Z,17.70
2022-10-10T18:43:13.598Z,17.60
2022-10-10T18:46:00.961Z,17.50
2022-10-10T18:48:50.259Z,17.40
2022-10-10T18:51:42.689Z,17.40
2022-10-10T18:54:30.186Z,17.40
2022-10-10T18:57:15.678Z,17.30
2022-10-10T19:00:01.301Z,17.20
2022-10-10T19:02:47.034Z,17.00
2022-10-10T19:05:32.376Z,16.80
2022-10-10T19:08:18.133Z,16.70
2022-10-10T19:11:04.908Z,16.50
2022-10-10T19:13:50.866Z,16.30
2022-10-10T19:16:37.447Z,16.20
2022-10-10T19:19:23.802Z,16.20
2022-10-10T19:22:09.438Z,16.30
2022-10-10T19:24:56.449Z,16.30
2022-10-10T19:27:42.195Z,16.10
2022-10-10T19:30:28.473Z,16.10
2022-10-10T19:33:14.286Z,16.10
2022-10-10T19:36:01.851Z,16.10
2022-10-10T19:38:47.190Z,16.10
2022-10-10T19:41:33.219Z,16.00
2022-10-10T19:44:18.557Z,15.90
2022-10-10T19:47:04.250Z,15.70
2022-10-10T19:49:50.421Z,15.70
2022-10-10T19:52:35.786Z,15.70
2022-10-10T19:55:21.413Z,15.70
2022-10-10T19:58:07.436Z,15.70
2022-10-10T20:00:52.744Z,15.70
2022-10-10T20:03:38.602Z,15.60
2022-10-10T20:06:24.372Z,15.60
2022-10-10T20:09:12.795Z,15.70
2022-10-10T20:11:58.205Z,15.50
2022-10-10T20:14:43.911Z,15.50
2022-10-10T20:17:29.760Z,15.50
2022-10-10T20:20:14.875Z,15.50
2022-10-10T20:23:02.259Z,15.40
2022-10-10T20:25:48.022Z,15.60
2022-10-10T20:28:33.501Z,15.60
2022-10-10T20:31:25.301Z,15.60
2022-10-10T20:34:11.040Z,15.60
2022-10-10T20:36:57.334Z,15.60
2022-10-10T20:39:42.648Z,15.50
2022-10-10T20:42:28.371Z,15.50
2022-10-10T20:45:13.821Z,15.40
2022-10-10T20:47:59.238Z,15.30
2022-10-10T20:50:44.738Z,15.20
2022-10-10T20:53:30.107Z,15.10
2022-10-10T20:56:15.856Z,15.10
2022-10-10T20:59:01.484Z,15.00
2022-10-10T21:01:47.378Z,15.00
2022-10-10T21:04:32.971Z,15.00
2022-10-10T21:07:18.669Z,15.00
2022-10-10T21:10:04.510Z,15.10
2022-10-10T21:12:49.919Z,15.10
2022-10-10T21:15:35.388Z,15.10
2022-10-10T21:18:20.963Z,15.10
2022-10-10T21:21:07.361Z,15.20
2022-10-10T21:23:56.235Z,15.30
2022-10-10T21:26:42.694Z,15.30
2022-10-10T21:29:28.253Z,15.20
2022-10-10T21:32:13.453Z,15.10
2022-10-10T21:34:58.959Z,15.10
2022-10-10T21:37:45.663Z,15.00
2022-10-10T21:40:31.254Z,15.10
2022-10-10T21:43:17.228Z,15.00
2022-10-10T21:46:05.102Z,15.00
2022-10-10T21:48:52.482Z,15.10
2022-10-10T21:51:43.281Z,15.10
2022-10-10T21:54:28.835Z,15.10
2022-10-10T21:57:15.229Z,15.10
2022-10-10T22:00:00.571Z,15.10
2022-10-10T22:02:47.363Z,15.10
2022-10-10T22:05:35.002Z,15.00
2022-10-10T22:08:20.413Z,15.00
2022-10-10T22:11:09.084Z,15.00
2022-10-10T22:13:54.837Z,14.90
2022-10-10T22:16:40.364Z,14.90
2022-10-10T22:19:26.162Z,15.00
2022-10-10T22:22:12.057Z,14.90
2022-10-10T22:24:57.692Z,14.90
2022-10-10T22:27:43.923Z,14.90
2022-10-10T22:30:29.268Z,14.90
2022-10-10T22:33:15.184Z,14.90
2022-10-10T22:36:00.940Z,14.90
2022-10-10T22:38:46.775Z,14.90
2022-10-10T22:41:32.225Z,14.90
2022-10-10T22:44:17.843Z,14.90
2022-10-10T22:47:03.091Z,14.90
2022-10-10T22:49:48.823Z,14.90
2022-10-10T22:52:34.423Z,14.90
2022-10-10T22:55:19.905Z,14.90
2022-10-10T22:58:05.268Z,14.90
2022-10-10T23:00:51.109Z,15.00
2022-10-10T23:03:37.139Z,14.90
2022-10-10T23:06:22.301Z,14.90
2022-10-10T23:09:07.902Z,14.90
2022-10-10T23:11:53.011Z,15.10
2022-10-10T23:14:38.877Z,15.30
2022-10-10T23:17:24.901Z,15.30
2022-10-10T23:20:10.575Z,15.10
2022-10-10T23:22:56.539Z,15.00
2022-10-10T23:25:43.442Z,14.90
2022-10-10T23:28:28.838Z,14.90
2022-10-10T23:31:14.384Z,14.90
2022-10-10T23:33:59.737Z,14.80
2022-10-10T23:36:45.324Z,14.80
2022-10-10T23:39:31.268Z,14.80
2022-10-10T23:42:16.733Z,14.80
2022-10-10T23:45:02.505Z,14.70
2022-10-10T23:47:48.360Z,14.70
2022-10-10T23:50:33.624Z,14.90
2022-10-10T23:53:19.307Z,14.70
2022-10-10T23:56:05.022Z,14.60
2022-10-10T23:58:50.700Z,14.60
